Time;durP1;ratioP1;P1;durP2;ratioP2;P2;SDS_P1;SDS_P2;PMS_P1;PMS_P2;Temp;Humidity;BMP_temperature;BMP_pressure;BME280_temperature;BME280_humidity;BME280_pressure;Samples;Min_cycle;Max_cycle;Signal;HPM_P1;HPM_P2
2023/07/25 00:01:46;;;;;;;;;;;;;;;;;;4974065;28;20324;-60
2023/07/25 00:04:12;;;;;;;;;;;;;;;;;;4974767;28;19922;-60
2023/07/25 00:06:38;;;;;;;;;;;;;;;;;;4973797;28;20484;-61
2023/07/25 00:09:04;;;;;;;;;;;;;;;;;;4974909;28;19969;-60
2023/07/25 00:11:30;;;;;;;;;;;;;;;;;;4978651;28;19922;-60
2023/07/25 00:13:55;;;;;;;;;;;;;;;;;;4974019;28;19992;-61
2023/07/25 00:16:21;;;;;;;;;;;;;;;;;;4974345;28;19926;-60
2023/07/25 00:18:47;;;;;;;;;;;;;;;;;;4974684;28;19926;-60
2023/07/25 00:21:13;;;;;;;;;;;;;;;;;;4974637;28;19934;-60
2023/07/25 00:23:39;;;;;;;;;;;;;;;;;;4973557;28;19926;-61
2023/07/25 00:26:05;;;;;;;;;;;;;;;;;;4973293;28;19972;-60
2023/07/25 00:28:31;;;;;;;;;;;;;;;;;;4988057;28;19926;-61
2023/07/25 00:30:57;;;;;;;;;;;;;;;;;;4974233;28;19930;-61
2023/07/25 00:33:23;;;;;;;;;;;;;;;;;;4975879;28;20291;-60
2023/07/25 00:35:49;;;;;;;;;;;;;;;;;;4975632;28;19930;-60
2023/07/25 00:38:14;;;;;;;;;;;;;;;;;;4974091;28;19989;-60
2023/07/25 00:40:40;;;;;;;;;;;;;;;;;;4973288;28;19972;-60
2023/07/25 00:43:06;;;;;;;;;;;;;;;;;;4972392;28;19922;-60
2023/07/25 00:45:32;;;;;;;;;;;;;;;;;;4972988;28;19930;-61
2023/07/25 00:47:58;;;;;;;;;;;;;;;;;;4973173;28;19933;-61
2023/07/25 00:50:24;;;;;;;;;;;;;;;;;;4972780;28;19930;-60
2023/07/25 00:52:50;;;;;;;;;;;;;;;;;;4970514;28;19929;-60
2023/07/25 00:55:16;;;;;;;;;;;;;;;;;;4971309;28;19930;-60
2023/07/25 00:57:42;;;;;;;;;;;;;;;;;;4972852;28;19996;-60
2023/07/25 01:00:08;;;;;;;;;;;;;;;;;;4971849;28;20396;-60
2023/07/25 01:02:34;;;;;;;;;;;;;;;;;;4971105;28;19932;-60
2023/07/25 01:04:59;;;;;;;;;;;;;;;;;;4972376;28;20009;-60
2023/07/25 01:07:25;;;;;;;;;;;;;;;;;;4972473;28;20029;-60
2023/07/25 01:09:51;;;;;;;;;;;;;;;;;;4973245;28;19922;-60
2023/07/25 01:12:17;;;;;;;;;;;;;;;;;;4972735;28;19926;-60
2023/07/25 01:14:43;;;;;;;;;;;;;;;;;;4972514;28;19934;-60
2023/07/25 01:17:09;;;;;;;;;;;;;;;;;;4973852;28;19933;-60
2023/07/25 01:19:35;;;;;;;;;;;;;;;;;;4972210;28;19926;-60
2023/07/25 01:22:01;;;;;;;;;;;;;;;;;;4970230;28;20435;-61
2023/07/25 01:24:27;;;;;;;;;;;;;;;;;;4972162;28;19973;-60
2023/07/25 01:26:53;;;;;;;;;;;;;;;;;;4972920;28;19926;-61
2023/07/25 01:29:19;;;;;;;;;;;;;;;;;;4974027;28;20319;-60
2023/07/25 01:31:45;;;;;;;;;;;;;;;;;;4973778;28;19925;-60
2023/07/25 01:34:11;;;;;;;;;;;;;;;;;;4974266;28;19926;-61
2023/07/25 01:36:36;;;;;;;;;;;;;;;;;;4973522;28;19964;-61
2023/07/25 01:39:02;;;;;;;;;;;;;;;;;;4972414;28;19932;-61
2023/07/25 01:41:28;;;;;;;;;;;;;;;;;;4972073;28;19922;-60
2023/07/25 01:43:54;;;;;;;;;;;;;;;;;;4972165;28;19925;-60
2023/07/25 01:46:20;;;;;;;;;;;;;;;;;;4972061;28;19933;-60
2023/07/25 01:48:46;;;;;;;;;;;;;;;;;;4970528;28;19922;-60
2023/07/25 01:51:12;;;;;;;;;;;;;;;;;;4971224;28;20453;-61
2023/07/25 01:53:38;;;;;;;;;;;;;;;;;;4969010;28;19982;-60
2023/07/25 01:56:03;;;;;;;;;;;;;;;;;;4987533;28;19930;-60
2023/07/25 01:58:29;;;;;;;;;;;;;;;;;;4973536;28;20356;-60
2023/07/25 02:00:55;;;;;;;;;;;;;;;;;;4970587;28;19926;-60
2023/07/25 02:03:21;;;;;;;;;;;;;;;;;;4973231;28;20382;-60
2023/07/25 02:05:47;;;;;;;;;;;;;;;;;;4972930;28;19969;-61
2023/07/25 02:08:14;;;;;;;;;;;;;;;;;;4973436;28;19987;-60
2023/07/25 02:10:40;;;;;;;;;;;;;;;;;;4972497;28;19929;-60
2023/07/25 02:13:06;;;;;;;;;;;;;;;;;;4971486;28;20300;-61
2023/07/25 02:15:32;;;;;;;;;;;;;;;;;;4969201;28;19923;-60
2023/07/25 02:17:57;;;;;;;;;;;;;;;;;;4972187;28;20386;-60
2023/07/25 02:20:25;;;;;;;;;;;;;;;;;;4978802;28;19940;-60
2023/07/25 02:22:51;;;;;;;;;;;;;;;;;;4971088;28;19922;-61
2023/07/25 02:25:17;;;;;;;;;;;;;;;;;;4970402;28;19949;-61
2023/07/25 02:27:43;;;;;;;;;;;;;;;;;;4971814;28;19926;-61
2023/07/25 02:30:09;;;;;;;;;;;;;;;;;;4970804;28;20017;-61
2023/07/25 02:32:35;;;;;;;;;;;;;;;;;;4971952;28;19922;-61
2023/07/25 02:35:01;;;;;;;;;;;;;;;;;;4972151;28;19933;-60
2023/07/25 02:37:27;;;;;;;;;;;;;;;;;;4971787;28;20379;-60
2023/07/25 02:39:53;;;;;;;;;;;;;;;;;;4972674;28;19930;-61
2023/07/25 02:42:18;;;;;;;;;;;;;;;;;;4972610;28;19969;-61
2023/07/25 02:44:44;;;;;;;;;;;;;;;;;;4963703;28;19926;-60
2023/07/25 02:47:10;;;;;;;;;;;;;;;;;;4967020;28;20246;-60
2023/07/25 02:49:36;;;;;;;;;;;;;;;;;;4969526;28;19992;-60
2023/07/25 02:52:02;;;;;;;;;;;;;;;;;;4963298;28;19922;-60
2023/07/25 02:54:28;;;;;;;;;;;;;;;;;;4968612;28;19926;-60
2023/07/25 02:56:54;;;;;;;;;;;;;;;;;;4970001;28;20329;-60
2023/07/25 02:59:20;;;;;;;;;;;;;;;;;;4970706;28;19965;-60
2023/07/25 03:01:46;;;;;;;;;;;;;;;;;;4969293;28;19922;-60
2023/07/25 03:04:12;;;;;;;;;;;;;;;;;;4972367;28;20002;-60
2023/07/25 03:06:37;;;;;;;;;;;;;;;;;;4970209;28;20264;-61
2023/07/25 03:09:03;;;;;;;;;;;;;;;;;;4971215;28;20014;-61
2023/07/25 03:11:29;;;;;;;;;;;;;;;;;;4972610;28;19930;-61
2023/07/25 03:13:55;;;;;;;;;;;;;;;;;;4968851;28;19926;-61
2023/07/25 03:16:21;;;;;;;;;;;;;;;;;;4971424;28;19980;-61
2023/07/25 03:18:47;;;;;;;;;;;;;;;;;;4973278;28;20388;-60
2023/07/25 03:21:13;;;;;;;;;;;;;;;;;;4971679;28;19933;-60
2023/07/25 03:23:39;;;;;;;;;;;;;;;;;;4970615;28;19934;-60
2023/07/25 03:26:04;;;;;;;;;;;;;;;;;;4972048;28;20446;-60
2023/07/25 03:28:30;;;;;;;;;;;;;;;;;;4971544;28;20016;-61
2023/07/25 03:30:56;;;;;;;;;;;;;;;;;;4968441;28;19922;-60
2023/07/25 03:33:22;;;;;;;;;;;;;;;;;;4974414;28;19929;-60
2023/07/25 03:35:48;;;;;;;;;;;;;;;;;;4975157;28;19926;-60
2023/07/25 03:38:14;;;;;;;;;;;;;;;;;;4976411;28;19977;-61
2023/07/25 03:40:40;;;;;;;;;;;;;;;;;;4975286;28;19926;-60
2023/07/25 03:43:06;;;;;;;;;;;;;;;;;;4975415;28;19933;-60
2023/07/25 03:45:32;;;;;;;;;;;;;;;;;;4974989;28;19953;-61
2023/07/25 03:47:58;;;;;;;;;;;;;;;;;;4973183;28;20502;-61
2023/07/25 03:50:24;;;;;;;;;;;;;;;;;;4973050;28;19969;-61
2023/07/25 03:52:49;;;;;;;;;;;;;;;;;;4974631;28;20374;-61
2023/07/25 03:55:15;;;;;;;;;;;;;;;;;;4972844;28;19932;-61
2023/07/25 03:57:41;;;;;;;;;;;;;;;;;;4972246;28;19922;-61
2023/07/25 04:00:07;;;;;;;;;;;;;;;;;;4971705;28;19926;-60
2023/07/25 04:02:33;;;;;;;;;;;;;;;;;;4975128;28;19933;-61
2023/07/25 04:04:59;;;;;;;;;;;;;;;;;;4974613;28;19926;-61
2023/07/25 04:07:25;;;;;;;;;;;;;;;;;;4974577;28;19922;-60
2023/07/25 04:09:51;;;;;;;;;;;;;;;;;;4975234;28;20288;-60
2023/07/25 04:12:17;;;;;;;;;;;;;;;;;;4975332;28;19926;-60
2023/07/25 04:14:42;;;;;;;;;;;;;;;;;;4973302;28;19969;-61
2023/07/25 04:17:08;;;;;;;;;;;;;;;;;;4972931;28;19929;-61
2023/07/25 04:19:34;;;;;;;;;;;;;;;;;;4974774;28;19926;-60
2023/07/25 04:22:00;;;;;;;;;;;;;;;;;;4973014;28;19922;-60
2023/07/25 04:24:26;;;;;;;;;;;;;;;;;;4974674;28;19937;-60
2023/07/25 04:26:52;;;;;;;;;;;;;;;;;;4974527;28;19922;-61
2023/07/25 04:29:18;;;;;;;;;;;;;;;;;;4974436;28;20017;-61
2023/07/25 04:31:44;;;;;;;;;;;;;;;;;;4966923;28;20368;-60
2023/07/25 04:34:10;;;;;;;;;;;;;;;;;;4974757;28;19922;-60
2023/07/25 04:36:36;;;;;;;;;;;;;;;;;;4974828;28;20439;-61
2023/07/25 04:39:02;;;;;;;;;;;;;;;;;;4972329;28;19928;-60
2023/07/25 04:41:28;;;;;;;;;;;;;;;;;;4972824;28;19926;-60
2023/07/25 04:43:54;;;;;;;;;;;;;;;;;;4975211;28;19977;-60
2023/07/25 04:46:20;;;;;;;;;;;;;;;;;;4971344;28;19922;-60
2023/07/25 04:48:45;;;;;;;;;;;;;;;;;;4972108;28;19960;-61
2023/07/25 04:51:11;;;;;;;;;;;;;;;;;;4971086;28;20377;-60
2023/07/25 04:53:37;;;;;;;;;;;;;;;;;;4972083;28;19973;-61
2023/07/25 04:56:03;;;;;;;;;;;;;;;;;;4971978;28;19922;-61
2023/07/25 04:58:29;;;;;;;;;;;;;;;;;;4973586;28;19922;-60
2023/07/25 05:00:55;;;;;;;;;;;;;;;;;;4968056;28;19936;-61
2023/07/25 05:03:21;;;;;;;;;;;;;;;;;;4971675;28;19930;-60
2023/07/25 05:05:47;;;;;;;;;;;;;;;;;;4973658;28;20268;-61
2023/07/25 05:08:13;;;;;;;;;;;;;;;;;;4973215;28;19922;-61
2023/07/25 05:10:40;;;;;;;;;;;;;;;;;;4972198;28;20395;-60
2023/07/25 05:13:06;;;;;;;;;;;;;;;;;;4973785;28;19969;-61
2023/07/25 05:15:32;;;;;;;;;;;;;;;;;;4974117;28;19925;-61
2023/07/25 05:17:58;;;;;;;;;;;;;;;;;;4973228;28;20340;-60
2023/07/25 05:20:24;;;;;;;;;;;;;;;;;;4971588;28;19926;-61
2023/07/25 05:22:50;;;;;;;;;;;;;;;;;;4971499;28;19949;-60
2023/07/25 05:25:16;;;;;;;;;;;;;;;;;;4973796;28;19926;-61
2023/07/25 05:27:41;;;;;;;;;;;;;;;;;;4974309;28;20083;-61
2023/07/25 05:30:07;;;;;;;;;;;;;;;;;;4972891;28;19922;-61
2023/07/25 05:32:33;;;;;;;;;;;;;;;;;;4970843;28;19927;-61
2023/07/25 05:34:59;;;;;;;;;;;;;;;;;;4973404;28;19929;-61
2023/07/25 05:37:25;;;;;;;;;;;;;;;;;;5009724;23;19983;-66
2023/07/25 05:39:51;;;;;;;;;;;;;;;;;;5045722;28;20019;-66
2023/07/25 05:42:17;;;;;;;;;;;;;;;;;;5043391;28;19921;-67
2023/07/25 05:44:43;;;;;;;;;;;;;;;;;;5046950;28;19925;-67
2023/07/25 05:47:09;;;;;;;;;;;;;;;;;;5047657;28;19932;-67
2023/07/25 05:49:34;;;;;;;;;;;;;;;;;;5049445;28;19928;-67
2023/07/25 05:52:00;;;;;;;;;;;;;;;;;;5049203;28;20283;-67
2023/07/25 05:54:26;;;;;;;;;;;;;;;;;;5050767;28;20564;-67
2023/07/25 05:56:52;;;;;;;;;;;;;;;;;;5031367;28;20033;-67
2023/07/25 05:59:20;;;;;;;;;;;;;;;;;;5049011;28;20281;-67
2023/07/25 06:01:46;;;;;;;;;;;;;;;;;;5048996;28;20082;-67
2023/07/25 06:04:13;;;;;;;;;;;;;;;;;;5048799;28;20405;-67
2023/07/25 06:06:39;;;;;;;;;;;;;;;;;;5050532;28;19928;-67
2023/07/25 06:09:05;;;;;;;;;;;;;;;;;;5032962;28;20357;-67
2023/07/25 06:11:31;;;;;;;;;;;;;;;;;;5050376;28;19921;-67
2023/07/25 06:13:57;;;;;;;;;;;;;;;;;;5032016;28;19932;-67
2023/07/25 06:16:23;;;;;;;;;;;;;;;;;;5044331;28;20302;-67
2023/07/25 06:18:49;;;;;;;;;;;;;;;;;;5052423;28;20317;-67
2023/07/25 06:21:15;;;;;;;;;;;;;;;;;;5031745;28;19932;-67
2023/07/25 06:23:41;;;;;;;;;;;;;;;;;;5037899;28;19925;-68
2023/07/25 06:26:07;;;;;;;;;;;;;;;;;;5038085;28;19948;-67
2023/07/25 06:28:32;;;;;;;;;;;;;;;;;;5031987;28;19932;-68
2023/07/25 06:30:58;;;;;;;;;;;;;;;;;;5051662;28;20508;-67
2023/07/25 06:33:24;;;;;;;;;;;;;;;;;;5052290;28;19929;-67
2023/07/25 06:35:50;;;;;;;;;;;;;;;;;;5040195;28;20313;-67
2023/07/25 06:38:16;;;;;;;;;;;;;;;;;;5046166;28;19925;-67
2023/07/25 06:40:42;;;;;;;;;;;;;;;;;;5038859;28;19948;-67
2023/07/25 06:43:08;;;;;;;;;;;;;;;;;;5049360;28;20400;-67
2023/07/25 06:45:34;;;;;;;;;;;;;;;;;;5047586;28;20008;-67
2023/07/25 06:47:59;;;;;;;;;;;;;;;;;;5045769;28;20348;-65
2023/07/25 06:50:25;;;;;;;;;;;;;;;;;;5050274;28;19920;-65
2023/07/25 06:52:51;;;;;;;;;;;;;;;;;;5051789;28;19932;-65
2023/07/25 06:55:19;;;;;;;;;;;;;;;;;;5050055;28;19929;-66
2023/07/25 06:57:45;;;;;;;;;;;;;;;;;;5049844;28;19935;-66
2023/07/25 07:00:10;;;;;;;;;;;;;;;;;;5050658;28;19929;-66
2023/07/25 07:02:36;;;;;;;;;;;;;;;;;;5042361;28;19921;-65
2023/07/25 07:05:02;;;;;;;;;;;;;;;;;;5030001;28;19963;-66
2023/07/25 07:07:28;;;;;;;;;;;;;;;;;;5049836;28;20644;-65
2023/07/25 07:09:54;;;;;;;;;;;;;;;;;;5048358;28;19936;-65
2023/07/25 07:12:20;;;;;;;;;;;;;;;;;;5051509;28;20263;-65
2023/07/25 07:14:46;;;;;;;;;;;;;;;;;;5051551;28;19920;-66
2023/07/25 07:17:12;;;;;;;;;;;;;;;;;;5050120;28;20029;-66
2023/07/25 07:19:37;;;;;;;;;;;;;;;;;;5029792;28;19932;-66
2023/07/25 07:22:03;;;;;;;;;;;;;;;;;;5050111;28;19921;-66
2023/07/25 07:24:29;;;;;;;;;;;;;;;;;;5048694;28;19921;-66
2023/07/25 07:26:55;;;;;;;;;;;;;;;;;;5049508;28;19975;-66
2023/07/25 07:29:21;;;;;;;;;;;;;;;;;;5048470;28;20342;-65
2023/07/25 07:31:47;;;;;;;;;;;;;;;;;;5047552;28;19927;-66
2023/07/25 07:34:14;;;;;;;;;;;;;;;;;;5049910;28;20278;-66
2023/07/25 07:36:40;;;;;;;;;;;;;;;;;;5040379;28;19920;-67
2023/07/25 07:39:06;;;;;;;;;;;;;;;;;;5041731;28;19928;-66
2023/07/25 07:41:32;;;;;;;;;;;;;;;;;;5047254;28;20354;-66
2023/07/25 07:43:58;;;;;;;;;;;;;;;;;;5040873;28;20289;-67
2023/07/25 07:46:24;;;;;;;;;;;;;;;;;;5040925;28;19924;-67
2023/07/25 07:48:50;;;;;;;;;;;;;;;;;;5028045;28;19990;-66
2023/07/25 07:51:16;;;;;;;;;;;;;;;;;;5051108;28;19921;-66
2023/07/25 07:53:42;;;;;;;;;;;;;;;;;;5050387;28;20020;-66
2023/07/25 07:56:07;;;;;;;;;;;;;;;;;;5048928;28;19929;-66
2023/07/25 07:58:33;;;;;;;;;;;;;;;;;;5048997;28;20588;-66
2023/07/25 08:00:59;;;;;;;;;;;;;;;;;;5042908;28;19925;-66
2023/07/25 08:03:25;;;;;;;;;;;;;;;;;;5043569;28;20309;-67
2023/07/25 08:05:51;;;;;;;;;;;;;;;;;;5033048;28;19924;-66
2023/07/25 08:08:17;;;;;;;;;;;;;;;;;;5049640;28;20613;-67
2023/07/25 08:10:43;;;;;;;;;;;;;;;;;;5047332;28;19921;-66
2023/07/25 08:13:09;;;;;;;;;;;;;;;;;;5045857;28;20266;-66
2023/07/25 08:15:35;;;;;;;;;;;;;;;;;;5049958;28;19929;-66
2023/07/25 08:18:00;;;;;;;;;;;;;;;;;;5047921;28;19967;-66
2023/07/25 08:20:26;;;;;;;;;;;;;;;;;;5052141;28;20559;-66
2023/07/25 08:22:52;;;;;;;;;;;;;;;;;;5030811;28;20032;-67
2023/07/25 08:25:18;;;;;;;;;;;;;;;;;;5047392;28;19929;-66
2023/07/25 08:27:44;;;;;;;;;;;;;;;;;;5025405;28;19987;-66
2023/07/25 08:30:10;;;;;;;;;;;;;;;;;;5043803;28;19921;-66
2023/07/25 08:32:36;;;;;;;;;;;;;;;;;;5052716;28;19978;-66
2023/07/25 08:35:02;;;;;;;;;;;;;;;;;;5020805;28;20378;-66
2023/07/25 08:37:28;;;;;;;;;;;;;;;;;;5045248;28;19971;-66
2023/07/25 08:39:54;;;;;;;;;;;;;;;;;;5047831;28;19986;-66
2023/07/25 08:42:20;;;;;;;;;;;;;;;;;;5044013;28;19931;-66
2023/07/25 08:44:46;;;;;;;;;;;;;;;;;;5048897;28;19924;-66
2023/07/25 08:47:12;;;;;;;;;;;;;;;;;;5049052;28;19928;-66
2023/07/25 08:49:38;;;;;;;;;;;;;;;;;;5044010;28;19924;-66
2023/07/25 08:52:04;;;;;;;;;;;;;;;;;;5042304;28;19965;-67
2023/07/25 08:54:30;;;;;;;;;;;;;;;;;;5046399;28;19974;-66
2023/07/25 08:56:56;;;;;;;;;;;;;;;;;;5050692;28;19921;-66
2023/07/25 08:59:22;;;;;;;;;;;;;;;;;;5039703;28;20295;-67
2023/07/25 09:01:48;;;;;;;;;;;;;;;;;;5049395;28;19921;-67
2023/07/25 09:04:14;;;;;;;;;;;;;;;;;;5047971;28;19928;-67
2023/07/25 09:06:40;;;;;;;;;;;;;;;;;;5039280;28;19929;-66
2023/07/25 09:09:06;;;;;;;;;;;;;;;;;;5044977;28;20049;-66
2023/07/25 09:11:32;;;;;;;;;;;;;;;;;;5029429;28;20263;-66
2023/07/25 09:13:57;;;;;;;;;;;;;;;;;;5042066;28;19929;-67
2023/07/25 09:16:23;;;;;;;;;;;;;;;;;;5049668;28;20071;-66
2023/07/25 09:18:49;;;;;;;;;;;;;;;;;;5050414;28;19925;-67
2023/07/25 09:21:15;;;;;;;;;;;;;;;;;;5046191;28;19925;-67
2023/07/25 09:23:41;;;;;;;;;;;;;;;;;;5041051;28;19983;-67
2023/07/25 09:26:08;;;;;;;;;;;;;;;;;;5047116;28;20003;-67
2023/07/25 09:28:34;;;;;;;;;;;;;;;;;;5047722;28;19925;-64
2023/07/25 09:31:00;;;;;;;;;;;;;;;;;;5025920;28;19967;-64
2023/07/25 09:33:26;;;;;;;;;;;;;;;;;;5047207;28;19933;-66
2023/07/25 09:35:52;;;;;;;;;;;;;;;;;;5042708;28;20017;-64
2023/07/25 09:38:18;;;;;;;;;;;;;;;;;;5042769;28;19963;-64
2023/07/25 09:40:44;;;;;;;;;;;;;;;;;;5051114;28;20370;-65
2023/07/25 09:43:10;;;;;;;;;;;;;;;;;;5050674;28;20451;-65
2023/07/25 09:45:36;;;;;;;;;;;;;;;;;;5047560;28;19968;-64
2023/07/25 09:48:02;;;;;;;;;;;;;;;;;;5031729;28;19921;-64
2023/07/25 09:50:28;;;;;;;;;;;;;;;;;;5047109;28;20117;-64
2023/07/25 09:52:54;;;;;;;;;;;;;;;;;;5045493;28;20338;-64
2023/07/25 09:55:20;;;;;;;;;;;;;;;;;;5053200;28;19920;-64
2023/07/25 09:57:46;;;;;;;;;;;;;;;;;;5039093;28;19921;-65
2023/07/25 10:00:12;;;;;;;;;;;;;;;;;;5025242;28;19929;-64
2023/07/25 10:02:38;;;;;;;;;;;;;;;;;;5043157;28;20371;-64
2023/07/25 10:05:03;;;;;;;;;;;;;;;;;;5043965;28;19921;-64
2023/07/25 10:07:29;;;;;;;;;;;;;;;;;;5050530;28;19927;-64
2023/07/25 10:09:55;;;;;;;;;;;;;;;;;;5034261;28;20002;-64
2023/07/25 10:12:21;;;;;;;;;;;;;;;;;;5043317;28;19928;-64
2023/07/25 10:14:47;;;;;;;;;;;;;;;;;;5046515;28;19921;-64
2023/07/25 10:17:13;;;;;;;;;;;;;;;;;;5029906;28;19948;-65
2023/07/25 10:19:39;;;;;;;;;;;;;;;;;;5049393;28;20005;-65
2023/07/25 10:22:05;;;;;;;;;;;;;;;;;;5044842;28;19928;-64
2023/07/25 10:24:31;;;;;;;;;;;;;;;;;;5021823;28;19924;-64
2023/07/25 10:26:57;;;;;;;;;;;;;;;;;;5020679;28;19921;-65
2023/07/25 10:29:23;;;;;;;;;;;;;;;;;;5040329;28;20329;-64
2023/07/25 10:31:49;;;;;;;;;;;;;;;;;;5045344;28;19950;-64
2023/07/25 10:34:14;;;;;;;;;;;;;;;;;;5040518;28;19928;-64
2023/07/25 10:36:40;;;;;;;;;;;;;;;;;;5025229;28;20362;-64
2023/07/25 10:39:08;;;;;;;;;;;;;;;;;;5040817;28;20020;-64
2023/07/25 10:41:34;;;;;;;;;;;;;;;;;;5046455;28;19967;-64
2023/07/25 10:44:01;;;;;;;;;;;;;;;;;;5048903;28;19944;-64
2023/07/25 10:46:27;;;;;;;;;;;;;;;;;;5047125;28;20364;-64
2023/07/25 10:48:53;;;;;;;;;;;;;;;;;;5045603;28;19970;-64
2023/07/25 10:51:19;;;;;;;;;;;;;;;;;;5025397;28;19924;-64
2023/07/25 10:53:45;;;;;;;;;;;;;;;;;;5034253;28;19928;-64
2023/07/25 10:56:11;;;;;;;;;;;;;;;;;;5040072;28;19948;-64
2023/07/25 10:58:40;;;;;;;;;;;;;;;;;;5046262;28;19991;-64
2023/07/25 11:01:09;;;;;;;;;;;;;;;;;;5027505;28;20219;-65
2023/07/25 11:03:35;;;;;;;;;;;;;;;;;;5045039;28;19931;-64
2023/07/25 11:06:01;;;;;;;;;;;;;;;;;;5045204;28;19970;-64
2023/07/25 11:08:27;;;;;;;;;;;;;;;;;;5043206;28;19920;-64
2023/07/25 11:10:53;;;;;;;;;;;;;;;;;;5033420;28;19967;-64
2023/07/25 11:13:19;;;;;;;;;;;;;;;;;;5045692;28;19921;-64
2023/07/25 11:15:45;;;;;;;;;;;;;;;;;;5047528;28;19990;-64
2023/07/25 11:18:11;;;;;;;;;;;;;;;;;;5039540;28;19929;-64
2023/07/25 11:20:37;;;;;;;;;;;;;;;;;;5012653;28;20670;-64
2023/07/25 11:23:02;;;;;;;;;;;;;;;;;;5038982;28;19947;-64
2023/07/25 11:25:28;;;;;;;;;;;;;;;;;;5042549;28;19995;-64
2023/07/25 11:27:54;;;;;;;;;;;;;;;;;;5041643;28;19929;-65
2023/07/25 11:30:20;;;;;;;;;;;;;;;;;;5031023;28;19962;-65
2023/07/25 11:32:47;;;;;;;;;;;;;;;;;;5010823;28;19921;-64
2023/07/25 11:35:13;;;;;;;;;;;;;;;;;;5042146;28;19943;-64
2023/07/25 11:37:39;;;;;;;;;;;;;;;;;;5032547;28;20628;-64
2023/07/25 11:40:05;;;;;;;;;;;;;;;;;;5034588;28;20024;-64
2023/07/25 11:42:30;;;;;;;;;;;;;;;;;;5037243;28;19971;-64
2023/07/25 11:44:56;;;;;;;;;;;;;;;;;;5040815;28;19940;-64
2023/07/25 11:47:22;;;;;;;;;;;;;;;;;;5043040;28;19921;-64
2023/07/25 11:49:48;;;;;;;;;;;;;;;;;;5043544;28;19971;-64
2023/07/25 11:52:14;;;;;;;;;;;;;;;;;;5036384;28;20522;-64
2023/07/25 11:54:40;;;;;;;;;;;;;;;;;;5037776;28;19931;-64
2023/07/25 11:57:06;;;;;;;;;;;;;;;;;;5044098;28;19929;-64
2023/07/25 11:59:36;;;;;;;;;;;;;;;;;;5042569;28;19935;-64
2023/07/25 12:02:02;;;;;;;;;;;;;;;;;;5037831;28;20007;-64
2023/07/25 12:04:28;;;;;;;;;;;;;;;;;;5039021;28;19921;-64
2023/07/25 12:06:54;;;;;;;;;;;;;;;;;;5045887;28;19944;-64
2023/07/25 12:09:21;;;;;;;;;;;;;;;;;;5047251;28;19928;-64
2023/07/25 12:11:46;;;;;;;;;;;;;;;;;;5027868;28;19971;-64
2023/07/25 12:14:12;;;;;;;;;;;;;;;;;;5044355;28;19921;-64
2023/07/25 12:16:38;;;;;;;;;;;;;;;;;;5041453;28;19925;-65
2023/07/25 12:19:04;;;;;;;;;;;;;;;;;;5027349;28;19931;-64
2023/07/25 12:21:30;;;;;;;;;;;;;;;;;;5028088;28;20011;-65
2023/07/25 12:23:56;;;;;;;;;;;;;;;;;;5037981;28;20020;-65
2023/07/25 12:26:22;;;;;;;;;;;;;;;;;;5041276;28;19925;-65
2023/07/25 12:28:48;;;;;;;;;;;;;;;;;;5046725;28;19920;-64
2023/07/25 12:31:14;;;;;;;;;;;;;;;;;;5044494;28;19928;-65
2023/07/25 12:33:41;;;;;;;;;;;;;;;;;;5042789;28;19931;-64
2023/07/25 12:36:07;;;;;;;;;;;;;;;;;;5042562;28;20011;-64
2023/07/25 12:38:32;;;;;;;;;;;;;;;;;;5040528;28;20497;-64
2023/07/25 12:40:58;;;;;;;;;;;;;;;;;;5040177;28;19936;-64
2023/07/25 12:43:24;;;;;;;;;;;;;;;;;;5038540;28;19929;-64
2023/07/25 12:45:50;;;;;;;;;;;;;;;;;;5043968;28;19928;-64
2023/07/25 12:48:16;;;;;;;;;;;;;;;;;;5050741;28;19927;-64
2023/07/25 12:50:42;;;;;;;;;;;;;;;;;;5039832;28;19967;-64
2023/07/25 12:53:08;;;;;;;;;;;;;;;;;;5044876;28;19925;-64
2023/07/25 12:55:34;;;;;;;;;;;;;;;;;;5038596;28;19927;-64
2023/07/25 12:58:00;;;;;;;;;;;;;;;;;;5045547;28;19961;-64
2023/07/25 13:00:25;;;;;;;;;;;;;;;;;;5043532;28;19929;-64
2023/07/25 13:02:51;;;;;;;;;;;;;;;;;;5047661;28;20394;-64
2023/07/25 13:05:17;;;;;;;;;;;;;;;;;;5047288;28;19952;-64
2023/07/25 13:07:43;;;;;;;;;;;;;;;;;;5038317;28;19928;-64
2023/07/25 13:10:10;;;;;;;;;;;;;;;;;;5042957;28;19921;-64
2023/07/25 13:12:36;;;;;;;;;;;;;;;;;;5041582;28;19928;-64
2023/07/25 13:15:02;;;;;;;;;;;;;;;;;;5042141;28;19921;-64
2023/07/25 13:17:28;;;;;;;;;;;;;;;;;;5040700;28;20007;-64
2023/07/25 13:19:54;;;;;;;;;;;;;;;;;;5051269;28;19935;-64
2023/07/25 13:22:20;;;;;;;;;;;;;;;;;;5042925;28;20274;-64
2023/07/25 13:24:46;;;;;;;;;;;;;;;;;;5036058;28;19927;-64
2023/07/25 13:27:12;;;;;;;;;;;;;;;;;;5047827;28;19931;-64
2023/07/25 13:29:38;;;;;;;;;;;;;;;;;;5045613;28;19920;-64
2023/07/25 13:32:04;;;;;;;;;;;;;;;;;;5051530;28;19947;-64
2023/07/25 13:34:30;;;;;;;;;;;;;;;;;;5053154;28;20657;-64
2023/07/25 13:36:56;;;;;;;;;;;;;;;;;;5046714;28;19933;-65
2023/07/25 13:39:22;;;;;;;;;;;;;;;;;;5046386;28;19927;-65
2023/07/25 13:41:48;;;;;;;;;;;;;;;;;;5046439;28;20289;-65
2023/07/25 13:44:14;;;;;;;;;;;;;;;;;;5008622;28;19932;-65
2023/07/25 13:46:39;;;;;;;;;;;;;;;;;;5028811;28;19940;-65
2023/07/25 13:49:06;;;;;;;;;;;;;;;;;;5023572;28;20101;-65
2023/07/25 13:51:31;;;;;;;;;;;;;;;;;;5032321;28;19921;-65
2023/07/25 13:53:57;;;;;;;;;;;;;;;;;;5049426;28;19925;-65
2023/07/25 13:56:23;;;;;;;;;;;;;;;;;;5044976;28;20398;-65
2023/07/25 13:58:49;;;;;;;;;;;;;;;;;;5038785;28;19920;-65
2023/07/25 14:01:15;;;;;;;;;;;;;;;;;;5042750;28;19935;-65
2023/07/25 14:03:41;;;;;;;;;;;;;;;;;;5043139;28;19925;-65
2023/07/25 14:06:07;;;;;;;;;;;;;;;;;;5044199;28;20355;-65
2023/07/25 14:08:33;;;;;;;;;;;;;;;;;;5030123;28;19966;-65
2023/07/25 14:10:59;;;;;;;;;;;;;;;;;;5044557;28;20053;-65
2023/07/25 14:13:25;;;;;;;;;;;;;;;;;;5045802;28;20007;-65
2023/07/25 14:15:52;;;;;;;;;;;;;;;;;;5038294;28;20000;-62
2023/07/25 14:18:18;;;;;;;;;;;;;;;;;;5020809;28;19925;-62
2023/07/25 14:20:44;;;;;;;;;;;;;;;;;;5043374;28;20186;-62
2023/07/25 14:23:10;;;;;;;;;;;;;;;;;;5000629;23;19926;-61
2023/07/25 14:25:36;;;;;;;;;;;;;;;;;;5005331;28;20633;-61
2023/07/25 14:28:02;;;;;;;;;;;;;;;;;;5002513;28;19961;-61
2023/07/25 14:30:29;;;;;;;;;;;;;;;;;;5008625;28;20339;-61
2023/07/25 14:32:55;;;;;;;;;;;;;;;;;;5010469;28;19925;-61
2023/07/25 14:35:21;;;;;;;;;;;;;;;;;;5010083;28;19922;-61
2023/07/25 14:37:47;;;;;;;;;;;;;;;;;;5010841;28;19922;-61
2023/07/25 14:40:13;;;;;;;;;;;;;;;;;;5003582;28;20005;-61
2023/07/25 14:42:39;;;;;;;;;;;;;;;;;;5002308;28;19929;-61
2023/07/25 14:45:05;;;;;;;;;;;;;;;;;;5008138;28;20268;-61
2023/07/25 14:47:30;;;;;;;;;;;;;;;;;;5005576;28;19926;-61
2023/07/25 14:49:56;;;;;;;;;;;;;;;;;;5010279;28;19932;-61
2023/07/25 14:52:22;;;;;;;;;;;;;;;;;;5009444;28;19925;-61
2023/07/25 14:54:48;;;;;;;;;;;;;;;;;;5008624;28;20535;-61
2023/07/25 14:57:16;;;;;;;;;;;;;;;;;;5010161;28;19921;-61
2023/07/25 14:59:42;;;;;;;;;;;;;;;;;;5005821;28;19932;-61
2023/07/25 15:02:08;;;;;;;;;;;;;;;;;;4994718;28;19926;-61
2023/07/25 15:04:34;;;;;;;;;;;;;;;;;;4998569;28;20306;-61
2023/07/25 15:07:00;;;;;;;;;;;;;;;;;;5004979;28;19991;-61
2023/07/25 15:09:26;;;;;;;;;;;;;;;;;;4991108;28;19932;-61
2023/07/25 15:11:52;;;;;;;;;;;;;;;;;;5002763;28;19925;-61
2023/07/25 15:14:18;;;;;;;;;;;;;;;;;;5005458;28;19932;-61
2023/07/25 15:16:44;;;;;;;;;;;;;;;;;;5006649;28;20279;-61
2023/07/25 15:19:10;;;;;;;;;;;;;;;;;;5008850;28;19921;-61
2023/07/25 15:21:36;;;;;;;;;;;;;;;;;;5021904;28;19934;-61
2023/07/25 15:24:02;;;;;;;;;;;;;;;;;;5010223;28;19926;-61
2023/07/25 15:26:28;;;;;;;;;;;;;;;;;;5009465;28;20355;-61
2023/07/25 15:28:54;;;;;;;;;;;;;;;;;;5012363;28;19949;-61
2023/07/25 15:31:20;;;;;;;;;;;;;;;;;;5012621;28;19932;-61
2023/07/25 15:33:46;;;;;;;;;;;;;;;;;;5013098;28;20359;-61
2023/07/25 15:36:12;;;;;;;;;;;;;;;;;;5014258;28;19921;-61
2023/07/25 15:38:38;;;;;;;;;;;;;;;;;;5013424;28;20368;-61
2023/07/25 15:41:04;;;;;;;;;;;;;;;;;;5012448;28;19935;-61
2023/07/25 15:43:30;;;;;;;;;;;;;;;;;;5013489;28;19928;-61
2023/07/25 15:45:56;;;;;;;;;;;;;;;;;;5014905;28;20468;-61
2023/07/25 15:48:21;;;;;;;;;;;;;;;;;;4990027;28;19962;-61
2023/07/25 15:50:47;;;;;;;;;;;;;;;;;;5007723;28;19979;-61
2023/07/25 15:53:13;;;;;;;;;;;;;;;;;;5010546;28;20387;-61
2023/07/25 15:55:40;;;;;;;;;;;;;;;;;;5012534;28;19922;-61
2023/07/25 15:58:06;;;;;;;;;;;;;;;;;;5007114;28;19925;-61
2023/07/25 16:00:32;;;;;;;;;;;;;;;;;;5009416;28;19925;-61
2023/07/25 16:02:58;;;;;;;;;;;;;;;;;;5006563;28;20000;-61
2023/07/25 16:05:24;;;;;;;;;;;;;;;;;;4994192;28;20032;-61
2023/07/25 16:07:49;;;;;;;;;;;;;;;;;;5010454;28;20393;-61
2023/07/25 16:10:15;;;;;;;;;;;;;;;;;;5013650;28;20016;-61
2023/07/25 16:12:41;;;;;;;;;;;;;;;;;;5013067;28;19925;-61
2023/07/25 16:15:07;;;;;;;;;;;;;;;;;;5012530;28;19932;-61
2023/07/25 16:17:33;;;;;;;;;;;;;;;;;;4997666;28;19926;-61
2023/07/25 16:19:59;;;;;;;;;;;;;;;;;;5008198;28;19948;-61
2023/07/25 16:22:25;;;;;;;;;;;;;;;;;;5012328;28;19936;-61
2023/07/25 16:24:52;;;;;;;;;;;;;;;;;;5013488;28;19984;-61
2023/07/25 16:27:18;;;;;;;;;;;;;;;;;;5011642;28;19922;-61
2023/07/25 16:29:44;;;;;;;;;;;;;;;;;;5011297;28;19967;-61
2023/07/25 16:32:10;;;;;;;;;;;;;;;;;;5012722;28;20008;-61
2023/07/25 16:34:36;;;;;;;;;;;;;;;;;;5011631;28;19988;-61
2023/07/25 16:37:02;;;;;;;;;;;;;;;;;;5009776;28;20381;-61